Time;durP1;ratioP1;P1;durP2;ratioP2;P2;SDS_P1;SDS_P2;PMS_P1;PMS_P2;Temp;Humidity;BMP_temperature;BMP_pressure;BME280_temperature;BME280_humidity;BME280_pressure;Samples;Min_cycle;Max_cycle;Signal;HPM_P1;HPM_P2
2021/01/05 00:00:47;;;;;;;13.52;7.50;;;;;;;9.18;100.00;96011.84;5004768;28;20050;-61
2021/01/05 00:03:12;;;;;;;13.65;6.93;;;;;;;9.12;100.00;95999.59;5005360;28;20037;-61
2021/01/05 00:05:38;;;;;;;21.17;10.30;;;;;;;8.57;100.00;95909.72;5006313;28;20041;-60
2021/01/05 00:08:03;;;;;;;18.35;8.57;;;;;;;8.80;100.00;95948.88;5005196;28;20026;-61
2021/01/05 00:10:29;;;;;;;16.55;8.00;;;;;;;9.10;100.00;96003.91;5006156;28;20520;-61
2021/01/05 00:12:54;;;;;;;16.63;7.60;;;;;;;9.01;100.00;95978.59;5006389;28;20030;-61
2021/01/05 00:15:20;;;;;;;12.30;7.47;;;;;;;9.13;100.00;95998.44;5006389;28;20049;-61
2021/01/05 00:17:45;;;;;;;17.58;9.00;;;;;;;9.02;100.00;95985.72;5006196;28;20045;-61
2021/01/05 00:20:18;;;;;;;15.55;8.50;;;;;;;9.21;100.00;96004.78;5005608;28;20042;-61
2021/01/05 00:22:43;;;;;;;10.10;6.32;;;;;;;9.23;100.00;96014.25;5003811;28;20087;-60
2021/01/05 00:25:12;;;;;;;18.88;8.43;;;;;;;9.26;100.00;96034.81;5003873;28;20045;-60
2021/01/05 00:27:37;;;;;;;16.48;9.65;;;;;;;9.20;100.00;96019.75;5006007;28;20095;-61
2021/01/05 00:30:24;;;;;;;22.92;9.27;;;;;;;9.33;100.00;96023.78;5005705;28;20042;-60
2021/01/05 00:32:52;;;;;;;13.10;7.97;;;;;;;9.26;100.00;96012.69;5004498;28;20440;-61
2021/01/05 00:35:22;;;;;;;12.57;8.82;;;;;;;9.38;100.00;96037.22;5005668;28;20046;-61
2021/01/05 00:37:48;;;;;;;15.50;10.23;;;;;;;9.42;100.00;96042.78;5005720;28;20037;-61
2021/01/05 00:40:15;;;;;;;18.00;11.45;;;;;;;9.15;100.00;95995.28;5005416;28;20409;-62
2021/01/05 00:42:41;;;;;;;20.40;11.07;;;;;;;9.48;100.00;96053.09;5004243;28;20065;-62
2021/01/05 00:45:07;;;;;;;16.48;10.35;;;;;;;8.91;100.00;95941.50;5005423;28;20038;-61
2021/01/05 00:47:32;;;;;;;18.73;10.30;;;;;;;9.35;100.00;96004.84;5005860;28;20034;-62
2021/01/05 00:49:58;;;;;;;16.35;9.73;;;;;;;9.72;100.00;96044.09;4986646;28;20081;-61
2021/01/05 00:52:23;;;;;;;14.77;9.50;;;;;;;9.72;100.00;96041.31;4623373;28;10000985;-61
2021/01/05 00:54:49;;;;;;;12.18;7.63;;;;;;;9.57;100.00;96027.84;5005093;28;20121;-61
2021/01/05 00:57:14;;;;;;;13.43;8.90;;;;;;;9.61;100.00;96034.97;5005045;28;20033;-61
2021/01/05 00:59:40;;;;;;;14.77;10.18;;;;;;;9.50;100.00;96012.00;5005127;28;20054;-61
2021/01/05 01:02:06;;;;;;;18.80;11.02;;;;;;;9.57;100.00;96044.41;5005142;28;20091;-61
2021/01/05 01:04:32;;;;;;;21.50;10.10;;;;;;;9.19;100.00;95979.50;5005310;28;20033;-61
2021/01/05 01:06:57;;;;;;;21.73;10.60;;;;;;;7.06;100.00;95673.50;5005384;28;20485;-61
2021/01/05 01:09:23;;;;;;;19.05;10.40;;;;;;;9.40;100.00;96045.94;5005084;28;20028;-62
2021/01/05 01:12:27;;;;;;;19.13;11.02;;;;;;;9.39;100.00;96044.31;5004961;28;20038;-61
2021/01/05 01:14:54;;;;;;;19.67;11.70;;;;;;;9.54;100.00;96050.72;5004980;28;20429;-61
2021/01/05 01:17:22;;;;;;;17.10;10.80;;;;;;;9.60;100.00;96038.09;5005128;28;20140;-61
2021/01/05 01:19:47;;;;;;;19.38;11.80;;;;;;;9.66;100.00;96040.13;5005086;28;20034;-61
2021/01/05 01:22:16;;;;;;;22.95;11.98;;;;;;;9.77;100.00;96045.72;5004874;28;20236;-60
2021/01/05 01:24:41;;;;;;;23.85;14.00;;;;;;;9.80;100.00;96051.22;5005145;28;20064;-60
2021/01/05 01:27:06;;;;;;;16.35;10.55;;;;;;;9.72;100.00;96023.97;5004878;28;20475;-61
2021/01/05 01:29:32;;;;;;;24.27;13.05;;;;;;;9.56;100.00;96046.41;5004918;28;20026;-61
2021/01/05 01:31:57;;;;;;;23.83;14.15;;;;;;;9.48;100.00;96053.09;5004638;28;20237;-61
2021/01/05 01:34:25;;;;;;;39.35;20.00;;;;;;;9.51;100.00;96057.03;5004989;28;20030;-61
2021/01/05 01:36:59;;;;;;;30.70;19.58;;;;;;;9.61;100.00;96062.59;5004634;28;20133;-61
2021/01/05 01:39:26;;;;;;;26.02;16.38;;;;;;;9.65;100.00;96068.97;5004878;28;20557;-60
2021/01/05 01:41:52;;;;;;;30.13;18.60;;;;;;;9.64;100.00;96072.88;5004763;28;20042;-61
2021/01/05 01:44:38;;;;;;;36.33;20.55;;;;;;;9.71;100.00;96061.88;5004862;28;20030;-61
2021/01/05 01:47:27;;;;;;;34.92;20.13;;;;;;;9.73;100.00;96070.56;5002904;28;20041;-60
2021/01/05 01:49:57;;;;;;;29.58;19.23;;;;;;;9.39;100.00;96029.75;5004885;28;20822;-61
2021/01/05 01:52:45;;;;;;;31.20;18.17;;;;;;;9.51;100.00;96055.06;5004773;28;20040;-61
2021/01/05 01:55:33;;;;;;;29.33;18.13;;;;;;;9.66;100.00;96070.53;5004962;28;20041;-62
2021/01/05 01:58:22;;;;;;;26.20;16.27;;;;;;;9.56;100.00;96065.75;5000885;28;20062;-62
2021/01/05 02:01:06;;;;;;;31.48;19.85;;;;;;;9.62;100.00;96060.63;4997698;28;20100;-61
2021/01/05 02:04:02;;;;;;;27.77;16.10;;;;;;;9.56;100.00;96065.75;5004768;28;20041;-62
2021/01/05 02:06:42;;;;;;;34.25;21.05;;;;;;;9.55;100.00;96061.41;5004142;28;20092;-62
2021/01/05 02:09:45;;;;;;;31.17;19.02;;;;;;;9.52;100.00;96070.47;5004439;28;20473;-62
2021/01/05 02:12:25;;;;;;;38.40;20.48;;;;;;;9.53;100.00;96072.03;5004402;28;20052;-62
2021/01/05 02:15:18;;;;;;;44.58;22.42;;;;;;;9.60;100.00;96066.56;5004399;28;20038;-62
2021/01/05 02:18:20;;;;;;;43.17;26.38;;;;;;;9.64;100.00;96061.81;5004296;28;20132;-61
2021/01/05 02:20:58;;;;;;;40.28;23.13;;;;;;;9.70;100.00;96081.63;5002833;28;20421;-62
2021/01/05 02:24:04;;;;;;;39.78;22.95;;;;;;;9.76;100.00;96064.25;5004712;28;20072;-61
2021/01/05 02:26:38;;;;;;;33.65;19.20;;;;;;;9.47;100.00;96023.84;4988045;28;20062;-62
2021/01/05 02:29:08;;;;;;;35.03;21.00;;;;;;;9.72;100.00;96068.97;5004403;28;20037;-61
2021/01/05 02:31:59;;;;;;;32.30;20.90;;;;;;;9.75;100.00;96067.41;5002719;28;20044;-61
2021/01/05 02:34:39;;;;;;;33.83;20.30;;;;;;;9.80;100.00;96065.06;5004576;28;20037;-61
2021/01/05 02:37:52;;;;;;;33.17;19.90;;;;;;;9.90;100.00;96069.84;5004369;28;20038;-61
2021/01/05 02:40:39;;;;;;;39.20;22.38;;;;;;;10.00;100.00;96063.56;4981959;28;20042;-61
2021/01/05 02:43:42;;;;;;;33.00;20.65;;;;;;;9.93;100.00;96069.06;4981890;28;20042;-61
2021/01/05 02:46:25;;;;;;;35.05;21.23;;;;;;;9.87;100.00;96067.88;5003735;28;20077;-61
2021/01/05 02:49:17;;;;;;;39.05;22.67;;;;;;;9.34;100.00;95992.22;5007670;28;20420;-61
2021/01/05 02:52:13;;;;;;;46.15;25.92;;;;;;;9.97;100.00;96066.31;4987963;28;20038;-61
2021/01/05 02:55:13;;;;;;;43.97;24.75;;;;;;;9.97;100.00;96063.56;4987898;28;20056;-63
2021/01/05 02:57:46;;;;;;;44.42;25.65;;;;;;;9.90;100.00;96063.50;4988198;28;20042;-61
2021/01/05 03:00:36;;;;;;;53.53;28.25;;;;;;;9.93;100.00;96062.72;4987556;28;20050;-62
2021/01/05 03:03:36;;;;;;;47.33;26.23;;;;;;;9.94;100.00;96059.56;5002663;28;20437;-62
2021/01/05 03:06:47;;;;;;;47.55;26.13;;;;;;;10.01;100.00;96059.63;4987566;28;20429;-62
2021/01/05 03:09:13;;;;;;;44.05;23.80;;;;;;;9.98;100.00;96060.41;4988077;28;20038;-61
2021/01/05 03:12:15;;;;;;;44.75;24.85;;;;;;;9.95;100.00;96072.25;4987622;28;20174;-63
2021/01/05 03:14:56;;;;;;;44.20;25.45;;;;;;;9.93;100.00;96063.53;4987690;28;20033;-62
2021/01/05 03:17:34;;;;;;;43.28;24.73;;;;;;;9.88;100.00;96069.44;5002221;28;20571;-63
2021/01/05 03:20:12;;;;;;;46.33;24.67;;;;;;;9.82;100.00;96062.69;4985985;28;20060;-60
2021/01/05 03:22:47;;;;;;;46.78;25.20;;;;;;;9.81;100.00;96072.19;4987841;28;20104;-61
2021/01/05 03:25:14;;;;;;;55.40;25.70;;;;;;;9.79;100.00;96074.53;4988683;28;20053;-61
2021/01/05 03:27:40;;;;;;;55.15;28.08;;;;;;;9.53;100.00;96027.81;5005686;28;20034;-61
2021/01/05 03:30:15;;;;;;;55.63;25.73;;;;;;;9.77;100.00;96071.38;5006804;28;20026;-63
2021/01/05 03:32:40;;;;;;;43.22;24.38;;;;;;;9.92;100.00;96133.06;5005634;28;20565;-60
2021/01/05 03:35:06;;;;;;;42.35;23.80;;;;;;;9.87;100.00;96065.09;5006588;28;20033;-62
2021/01/05 03:37:31;;;;;;;48.92;23.98;;;;;;;9.84;100.00;96074.19;5005465;28;20054;-61
2021/01/05 03:39:57;;;;;;;50.88;24.90;;;;;;;9.80;100.00;96076.13;5006820;28;20712;-61
2021/01/05 03:42:22;;;;;;;49.20;26.92;;;;;;;9.52;100.00;96036.50;5006736;28;20057;-61
2021/01/05 03:44:48;;;;;;;48.05;26.65;;;;;;;9.90;100.00;96086.44;5007045;28;20633;-60
2021/01/05 03:47:13;;;;;;;59.35;30.15;;;;;;;9.93;100.00;96085.66;5006336;28;20042;-63
2021/01/05 03:49:38;;;;;;;62.90;34.97;;;;;;;9.88;100.00;96069.44;5006458;28;20073;-62
2021/01/05 03:52:04;;;;;;;69.88;37.53;;;;;;;9.46;100.00;96021.47;5006428;28;20038;-61
2021/01/05 03:54:29;;;;;;;57.22;32.63;;;;;;;9.91;100.00;96082.50;5006400;28;20034;-61
2021/01/05 03:56:55;;;;;;;64.70;31.65;;;;;;;9.77;100.00;96093.50;5020260;28;20493;-61
2021/01/05 03:59:20;;;;;;;57.55;29.30;;;;;;;9.76;100.00;96100.22;5006082;28;20136;-61
2021/01/05 04:01:53;;;;;;;56.30;27.67;;;;;;;9.87;100.00;96109.34;5006052;28;20038;-64
2021/01/05 04:04:19;;;;;;;50.63;27.95;;;;;;;9.26;100.00;96006.38;5006590;28;20084;-62
2021/01/05 04:06:44;;;;;;;53.92;28.67;;;;;;;9.85;100.00;96116.44;5006140;28;20037;-63
2021/01/05 04:09:09;;;;;;;54.65;31.25;;;;;;;9.81;100.00;96124.75;5004549;28;20576;-62
2021/01/05 04:11:35;;;;;;;55.97;33.80;;;;;;;9.83;100.00;96119.59;5006053;28;20417;-62
2021/01/05 04:14:00;;;;;;;67.97;35.70;;;;;;;9.34;100.00;96047.47;5004875;28;20037;-61
2021/01/05 04:16:25;;;;;;;61.05;33.42;;;;;;;9.60;100.00;96083.16;5005563;28;20037;-63
2021/01/05 04:18:51;;;;;;;59.38;33.58;;;;;;;9.73;100.00;96114.00;5005949;28;20053;-61
2021/01/05 04:21:16;;;;;;;154.15;61.60;;;;;;;9.66;100.00;96106.47;5004177;28;20417;-62
2021/01/05 04:23:42;;;;;;;333.83;123.75;;;;;;;9.15;100.00;96042.25;5020869;28;20493;-62
2021/01/05 04:26:09;;;;;;;224.52;93.20;;;;;;;9.47;100.00;96123.34;5005897;28;20029;-63
2021/01/05 04:28:34;;;;;;;111.75;48.50;;;;;;;9.74;100.00;96149.56;5020859;28;20030;-62
2021/01/05 04:31:00;;;;;;;129.10;65.43;;;;;;;9.77;100.00;96154.34;5005748;28;20108;-61
2021/01/05 04:33:25;;;;;;;180.65;80.55;;;;;;;9.56;100.00;96148.69;5005792;28;20034;-61
2021/01/05 04:35:51;;;;;;;54.35;29.02;;;;;;;9.32;100.00;96127.22;5004183;28;20476;-62
2021/01/05 04:38:16;;;;;;;28.85;14.50;;;;;;;9.57;100.00;96175.16;5005988;28;20026;-62
2021/01/05 04:40:46;;;;;;;26.67;15.25;;;;;;;9.56;100.00;96162.50;5005918;28;20444;-61
2021/01/05 04:43:43;;;;;;;31.67;18.80;;;;;;;9.51;100.00;96179.47;5006246;28;20037;-61
2021/01/05 04:46:15;;;;;;;32.28;18.52;;;;;;;9.49;100.00;96181.81;5003902;28;20056;-61
2021/01/05 04:49:12;;;;;;;33.22;20.08;;;;;;;9.44;100.00;96184.91;5005656;28;20496;-61
2021/01/05 04:51:56;;;;;;;19.17;13.10;;;;;;;9.36;100.00;96199.84;5005661;28;20037;-60
2021/01/05 04:54:43;;;;;;;15.88;10.57;;;;;;;9.23;100.00;96185.56;5005763;28;20580;-62
2021/01/05 04:57:31;;;;;;;19.92;10.50;;;;;;;9.17;100.00;96202.84;5005057;28;20505;-61
2021/01/05 05:00:25;;;;;;;17.10;10.68;;;;;;;8.74;100.00;96167.75;5003921;28;20076;-61
2021/01/05 05:03:00;;;;;;;14.35;9.98;;;;;;;8.93;100.00;96200.69;5005498;28;20041;-61
2021/01/05 05:05:39;;;;;;;16.02;10.00;;;;;;;9.02;100.00;96228.78;5005059;28;20456;-62
2021/01/05 05:08:11;;;;;;;13.52;8.77;;;;;;;8.96;100.00;96230.31;5019788;28;20048;-61
2021/01/05 05:10:52;;;;;;;28.77;17.05;;;;;;;8.94;100.00;96241.72;5004842;28;20056;-60
2021/01/05 05:13:31;;;;;;;12.18;8.00;;;;;;;8.89;100.00;96235.75;5005522;28;20065;-60
2021/01/05 05:16:26;;;;;;;16.58;9.20;;;;;;;8.86;100.00;96253.06;5004933;28;20034;-61
2021/01/05 05:18:51;;;;;;;14.68;8.55;;;;;;;8.76;100.00;96242.69;5003968;28;20497;-60
2021/01/05 05:21:38;;;;;;;13.93;7.13;;;;;;;8.77;100.00;96247.06;5004836;28;20026;-63
2021/01/05 05:24:13;;;;;;;12.88;6.90;;;;;;;8.77;100.00;96261.66;5004579;28;20053;-61
2021/01/05 05:27:13;;;;;;;10.23;6.57;;;;;;;8.40;100.00;96207.59;5003029;28;20401;-61
2021/01/05 05:29:39;;;;;;;14.40;7.57;;;;;;;8.63;100.00;96266.22;5017590;28;20042;-61
2021/01/05 05:32:24;;;;;;;12.07;7.18;;;;;;;8.32;100.00;96214.19;5004768;28;20080;-61
2021/01/05 05:35:04;;;;;;;11.85;7.30;;;;;;;8.62;100.00;96281.19;5004743;28;20042;-62
2021/01/05 05:37:49;;;;;;;11.69;8.03;;;;;;;8.49;100.00;96274.31;4911082;28;5001922;-60
2021/01/05 05:40:44;;;;;;;11.73;7.53;;;;;;;8.30;100.00;96266.97;5004783;28;20246;-60
2021/01/05 05:43:29;;;;;;;14.40;8.23;;;;;;;8.40;100.00;96282.09;5004227;28;20049;-64
2021/01/05 05:46:07;;;;;;;14.93;10.25;;;;;;;8.35;100.00;96282.41;5004523;28;20038;-61
2021/01/05 05:48:51;;;;;;;19.52;10.00;;;;;;;8.35;100.00;96293.44;5003381;28;20057;-61
2021/01/05 05:51:21;;;;;;;;;;;;;;;8.32;100.00;96296.97;5003662;28;20073;-60
2021/01/05 05:54:09;;;;;;;20.30;12.70;;;;;;;8.30;100.00;96296.56;5004947;28;20042;-61
2021/01/05 05:57:17;;;;;;;25.08;14.85;;;;;;;8.36;100.00;96303.34;5004526;28;20505;-62
2021/01/05 05:59:48;;;;;;;37.50;17.60;;;;;;;7.94;100.00;96242.81;5019327;28;20057;-61
2021/01/05 06:02:19;;;;;;;28.02;13.07;;;;;;;8.33;100.00;96318.66;5004246;28;20069;-61
2021/01/05 06:04:45;;;;;;;22.77;11.18;;;;;;;8.27;100.00;96336.72;5002644;28;20037;-62
2021/01/05 06:07:11;;;;;;;22.58;12.60;;;;;;;8.14;100.00;96331.75;5004277;28;20056;-62
2021/01/05 06:09:36;;;;;;;26.08;12.07;;;;;;;7.69;100.00;96294.84;5004766;28;20034;-61
2021/01/05 06:12:04;;;;;;;21.42;10.23;;;;;;;7.98;100.00;96340.19;5004182;28;20046;-63
2021/01/05 06:14:30;;;;;;;21.65;10.32;;;;;;;8.08;100.00;96347.03;5002983;28;20033;-62
2021/01/05 06:16:55;;;;;;;11.77;6.75;;;;;;;8.14;100.00;96348.31;4997162;28;20053;-60
2021/01/05 06:19:20;;;;;;;14.63;8.00;;;;;;;8.27;100.00;96353.25;4995660;28;20476;-61
2021/01/05 06:21:46;;;;;;;15.80;10.02;;;;;;;8.24;100.00;96402.84;5005331;28;20112;-62
2021/01/05 06:24:11;;;;;;;16.65;9.38;;;;;;;8.02;100.00;96296.09;5007319;28;20497;-61
2021/01/05 06:26:37;;;;;;;19.83;9.95;;;;;;;7.52;100.00;96222.91;5007790;28;20042;-63
2021/01/05 06:29:02;;;;;;;27.75;14.23;;;;;;;8.49;100.00;96370.91;5007967;28;20105;-61
2021/01/05 06:31:28;;;;;;;13.88;8.38;;;;;;;8.01;100.00;96289.00;5007655;28;20034;-62
2021/01/05 06:33:53;;;;;;;13.80;7.53;;;;;;;8.66;100.00;96389.69;5007140;28;20029;-61
2021/01/05 06:36:19;;;;;;;16.90;8.85;;;;;;;8.65;100.00;96379.81;4988684;28;20179;-58
2021/01/05 06:38:44;;;;;;;15.82;8.75;;;;;;;8.65;100.00;96390.84;4989017;28;20030;-61
2021/01/05 06:41:10;;;;;;;17.17;9.30;;;;;;;8.31;100.00;96342.28;4986718;28;20471;-60
2021/01/05 06:43:35;;;;;;;27.27;15.40;;;;;;;8.65;100.00;96408.22;4988872;28;20516;-59
2021/01/05 06:46:01;;;;;;;21.63;10.95;;;;;;;8.68;100.00;96401.13;4976599;28;20099;-61
2021/01/05 06:48:26;;;;;;;16.95;10.00;;;;;;;8.75;100.00;96406.78;5003685;28;20045;-64
2021/01/05 06:50:51;;;;;;;14.63;8.30;;;;;;;8.59;100.00;96406.97;4977561;28;20038;-64
2021/01/05 06:53:17;;;;;;;15.55;8.85;;;;;;;8.44;100.00;96418.94;4987737;28;20561;-64
2021/01/05 06:55:42;;;;;;;14.43;7.00;;;;;;;8.27;100.00;96422.22;4986641;28;20185;-62
2021/01/05 06:58:08;;;;;;;13.85;6.53;;;;;;;8.22;100.00;96421.75;4988078;28;20048;-62
2021/01/05 07:00:33;;;;;;;11.35;6.55;;;;;;;8.20;100.00;96396.47;4987505;28;20271;-61
2021/01/05 07:02:59;;;;;;;14.18;7.72;;;;;;;8.53;100.00;96427.78;5003260;28;20119;-62
2021/01/05 07:05:25;;;;;;;14.77;6.50;;;;;;;8.57;100.00;96441.59;4987373;28;20058;-62
2021/01/05 07:07:52;;;;;;;12.55;5.18;;;;;;;8.62;100.00;96433.00;4986949;28;20144;-60
2021/01/05 07:10:20;;;;;;;11.48;6.20;;;;;;;8.64;100.00;96441.72;4986526;28;20066;-62
2021/01/05 07:12:47;;;;;;;8.63;5.43;;;;;;;8.79;100.00;96440.75;4988274;28;20452;-62
2021/01/05 07:15:15;;;;;;;10.13;5.68;;;;;;;8.87;100.00;96442.44;4986971;28;20066;-60
2021/01/05 07:17:40;;;;;;;10.60;5.28;;;;;;;8.69;100.00;96416.56;4988632;28;20517;-65
2021/01/05 07:20:08;;;;;;;6.88;4.70;;;;;;;8.90;100.00;96453.53;4988921;28;20034;-59
2021/01/05 07:22:34;;;;;;;10.93;5.22;;;;;;;8.83;100.00;96447.94;4988028;28;20129;-63
2021/01/05 07:25:00;;;;;;;10.77;5.03;;;;;;;8.92;100.00;96445.69;4987004;28;20034;-59
2021/01/05 07:27:25;;;;;;;8.93;4.95;;;;;;;8.96;100.00;96446.50;4984529;28;20061;-61
2021/01/05 07:29:51;;;;;;;8.35;4.70;;;;;;;8.69;100.00;96386.19;4985444;28;20527;-60
2021/01/05 07:32:16;;;;;;;8.10;4.93;;;;;;;9.14;100.00;96453.06;4985734;28;20038;-60
2021/01/05 07:34:41;;;;;;;8.60;5.13;;;;;;;9.21;100.00;96460.66;4985076;28;20420;-61
2021/01/05 07:37:22;;;;;;;6.95;4.30;;;;;;;9.36;100.00;96459.66;4979857;28;20042;-63
2021/01/05 07:39:47;;;;;;;14.23;6.28;;;;;;;9.33;98.62;96443.81;4984697;28;20240;-60
2021/01/05 07:42:16;;;;;;;6.53;4.15;;;;;;;9.45;99.53;96465.69;4971823;28;20038;-62
2021/01/05 07:44:42;;;;;;;7.10;3.88;;;;;;;9.41;96.53;96472.34;4995812;28;20076;-62
2021/01/05 07:47:08;;;;;;;7.95;3.67;;;;;;;9.43;95.17;96515.03;5001704;28;20511;-61
2021/01/05 07:49:34;;;;;;;6.78;3.53;;;;;;;9.56;96.04;96466.63;4987932;28;20119;-59
2021/01/05 07:51:59;;;;;;;4.53;3.42;;;;;;;9.72;94.59;96467.19;5002996;28;20495;-58
2021/01/05 07:54:25;;;;;;;5.60;3.35;;;;;;;9.85;93.59;96476.81;4981398;28;20093;-60
2021/01/05 07:56:50;;;;;;;6.07;4.10;;;;;;;9.90;93.32;96479.22;4972584;28;20481;-63
2021/01/05 07:59:18;;;;;;;5.13;3.70;;;;;;;9.85;91.89;96465.75;4981724;28;20576;-62
2021/01/05 08:01:44;;;;;;;5.18;3.85;;;;;;;9.73;90.25;96438.38;4987596;28;20505;-58
2021/01/05 08:04:10;;;;;;;5.22;2.70;;;;;;;9.99;90.15;96490.78;4988302;28;20113;-60
2021/01/05 08:06:40;;;;;;;4.20;2.72;;;;;;;9.78;90.60;96471.22;4985369;28;20088;-60
2021/01/05 08:09:05;;;;;;;8.48;4.85;;;;;;;9.58;91.08;96461.50;4988543;28;20041;-60
2021/01/05 08:11:38;;;;;;;4.35;2.70;;;;;;;9.75;88.59;96543.88;4987351;28;20826;-61
2021/01/05 08:14:05;;;;;;;5.97;3.63;;;;;;;9.76;89.19;96483.81;4985135;28;20077;-67
2021/01/05 08:16:30;;;;;;;35.15;16.63;;;;;;;9.80;90.11;96484.66;4986555;28;20418;-66
2021/01/05 08:18:56;;;;;;;17.50;9.38;;;;;;;9.70;92.21;96469.53;5001054;28;20580;-63
2021/01/05 08:21:23;;;;;;;10.98;5.95;;;;;;;9.76;93.04;96440.38;4985900;28;20132;-63
2021/01/05 08:23:49;;;;;;;19.77;8.73;;;;;;;9.95;91.09;96444.88;4982298;28;20340;-63
2021/01/05 08:26:14;;;;;;;18.60;14.38;;;;;;;10.62;90.39;96515.53;4977605;28;20038;-64
2021/01/05 08:46:30;;;;;;;13.45;9.27;;;;;;;11.63;82.86;96448.03;5098550;27;819163;-59
2021/01/05 08:48:55;;;;;;;15.82;9.50;;;;;;;12.19;81.69;96523.09;5120295;28;20028;-60
2021/01/05 08:51:22;;;;;;;15.25;10.02;;;;;;;12.26;79.79;96514.81;5103002;28;20035;-62
2021/01/05 08:53:49;;;;;;;11.00;7.85;;;;;;;11.90;82.67;96518.69;5112626;28;20320;-61
2021/01/05 08:56:25;;;;;;;15.23;9.98;;;;;;;12.08;82.80;96520.31;5107697;28;20038;-63
2021/01/05 08:58:51;;;;;;;15.00;9.38;;;;;;;12.14;80.85;96523.47;5114015;28;20054;-58
2021/01/05 09:01:17;;;;;;;13.27;8.57;;;;;;;12.29;81.21;96522.34;5101024;28;20493;-59
2021/01/05 09:03:43;;;;;;;22.85;14.60;;;;;;;12.41;81.18;96521.97;5101329;28;20031;-59
2021/01/05 09:06:09;;;;;;;22.55;15.38;;;;;;;12.56;80.85;96518.03;5115790;28;20063;-58
2021/01/05 09:08:35;;;;;;;25.27;15.90;;;;;;;11.85;76.11;96431.06;5093912;28;20390;-58
2021/01/05 09:11:05;;;;;;;9.68;5.30;;;;;;;12.47;70.90;96512.03;5103136;28;20062;-62
2021/01/05 09:13:30;;;;;;;16.70;8.73;;;;;;;12.22;70.30;96480.66;5117014;28;20525;-60
2021/01/05 09:15:56;;;;;;;15.77;6.75;;;;;;;12.53;69.35;96513.25;5120804;28;20039;-60
2021/01/05 09:18:22;;;;;;;6.45;3.67;;;;;;;12.08;67.08;96466.75;5117157;28;20519;-60
2021/01/05 09:20:52;;;;;;;2.75;2.28;;;;;;;12.18;63.97;96524.31;5117114;28;20027;-60
2021/01/05 09:23:22;;;;;;;7.63;4.25;;;;;;;12.02;65.20;96523.88;5121870;28;20032;-60
2021/01/05 09:25:53;;;;;;;5.63;4.07;;;;;;;11.93;66.51;96524.22;5121701;28;20031;-60
2021/01/05 09:28:19;;;;;;;6.65;4.68;;;;;;;11.78;66.99;96522.59;5122258;28;20784;-59
2021/01/05 09:30:49;;;;;;;4.47;3.30;;;;;;;11.51;66.54;96478.84;5102689;28;20032;-59
2021/01/05 09:33:16;;;;;;;12.02;6.93;;;;;;;11.92;68.29;96527.38;5121748;28;20207;-59
2021/01/05 09:35:42;;;;;;;13.88;8.30;;;;;;;11.98;69.89;96521.06;5102768;28;20054;-59
2021/01/05 09:38:08;;;;;;;4.82;2.55;;;;;;;12.00;63.91;96518.69;5121804;28;20020;-59
2021/01/05 09:40:40;;;;;;;10.88;6.63;;;;;;;11.97;66.14;96519.50;5121437;28;20038;-61
2021/01/05 09:43:08;;;;;;;3.38;2.50;;;;;;;11.95;63.27;96509.94;5121861;28;20074;-59
2021/01/05 09:45:35;;;;;;;4.07;2.53;;;;;;;11.97;64.07;96507.59;5099851;28;20074;-59
2021/01/05 09:48:15;;;;;;;3.17;2.72;;;;;;;11.89;62.90;96492.91;5107981;28;20027;-60
2021/01/05 09:50:42;;;;;;;7.80;4.00;;;;;;;12.06;65.17;96505.25;5107107;28;20040;-61
2021/01/05 09:53:08;;;;;;;10.50;5.18;;;;;;;12.16;64.76;96510.00;5107830;28;20063;-62
2021/01/05 09:55:34;;;;;;;5.05;2.47;;;;;;;12.16;62.40;96510.00;5107222;28;20043;-59
2021/01/05 09:58:00;;;;;;;5.25;2.30;;;;;;;12.22;62.65;96511.22;5089530;28;20043;-59
2021/01/05 10:00:26;;;;;;;9.15;5.28;;;;;;;12.28;63.23;96506.06;5107196;28;20032;-60
2021/01/05 10:02:51;;;;;;;7.65;4.75;;;;;;;12.33;62.22;96503.69;5107628;28;20032;-60
2021/01/05 10:05:17;;;;;;;22.25;14.60;;;;;;;12.43;62.43;96511.25;5106507;28;20039;-60
2021/01/05 10:07:43;;;;;;;34.30;20.25;;;;;;;12.65;60.28;96510.06;5107360;28;20063;-59
2021/01/05 10:10:22;;;;;;;7.80;4.88;;;;;;;12.67;60.35;96504.94;5107082;28;20031;-59
2021/01/05 10:12:47;;;;;;;13.57;6.80;;;;;;;12.66;61.30;96517.22;5107247;28;20052;-59
2021/01/05 10:15:15;;;;;;;7.55;3.63;;;;;;;12.70;58.78;96506.91;5087790;28;20042;-59
2021/01/05 10:17:40;;;;;;;7.75;5.18;;;;;;;12.81;58.20;96513.25;5107322;28;20063;-59
2021/01/05 10:20:10;;;;;;;8.57;5.05;;;;;;;12.86;58.09;96504.53;5106475;28;20059;-59
2021/01/05 10:22:36;;;;;;;5.95;3.72;;;;;;;12.40;57.49;96452.91;5107134;28;20088;-59
2021/01/05 10:25:01;;;;;;;10.57;6.32;;;;;;;12.89;58.89;96514.84;5107330;28;20032;-59
2021/01/05 10:27:26;;;;;;;7.18;4.50;;;;;;;12.88;56.78;96501.34;5106754;28;20028;-61
2021/01/05 10:29:52;;;;;;;6.25;4.25;;;;;;;12.82;57.51;96503.72;5099446;28;20130;-59
2021/01/05 10:32:18;;;;;;;7.05;4.00;;;;;;;12.47;56.34;96461.25;5067432;28;20024;-60
2021/01/05 10:34:43;;;;;;;8.20;5.55;;;;;;;11.65;56.99;96382.63;5086456;28;20040;-59
2021/01/05 10:37:10;;;;;;;17.65;10.65;;;;;;;12.34;56.42;96455.31;5091642;28;20041;-60
2021/01/05 10:39:35;;;;;;;11.55;6.13;;;;;;;12.40;56.70;96442.59;5106894;28;20035;-59
2021/01/05 10:42:03;;;;;;;10.80;5.70;;;;;;;12.91;56.80;96504.13;5106388;28;20420;-59
2021/01/05 10:44:29;;;;;;;9.13;4.70;;;;;;;13.03;53.39;96517.63;5084532;28;20032;-59
2021/01/05 10:47:04;;;;;;;5.45;3.33;;;;;;;13.01;53.24;96511.69;5067700;28;20422;-60
2021/01/05 10:49:29;;;;;;;12.88;6.18;;;;;;;12.76;54.17;96452.50;5086383;28;20593;-57
2021/01/05 10:51:58;;;;;;;10.27;6.40;;;;;;;13.21;55.38;96515.63;5085664;28;20146;-58
2021/01/05 10:54:27;;;;;;;7.25;4.78;;;;;;;13.34;57.10;96511.22;5085840;28;20040;-58
2021/01/05 10:56:58;;;;;;;5.72;3.92;;;;;;;13.47;57.70;96504.03;5085750;28;20073;-58
2021/01/05 10:59:23;;;;;;;12.05;5.80;;;;;;;13.59;52.97;96509.16;5085238;28;20106;-58
2021/01/05 11:01:49;;;;;;;18.33;10.35;;;;;;;13.55;53.76;96502.81;5085470;28;20039;-59
2021/01/05 11:04:14;;;;;;;52.10;28.05;;;;;;;13.60;52.73;96505.19;5085913;28;20034;-59
2021/01/05 11:06:49;;;;;;;61.75;30.35;;;;;;;13.59;51.99;96508.38;5085046;28;20051;-58
2021/01/05 11:09:14;;;;;;;14.60;7.00;;;;;;;13.39;52.50;96504.44;5084417;28;20035;-58
2021/01/05 11:11:40;;;;;;;16.55;6.93;;;;;;;12.87;51.36;96460.81;5085505;28;20558;-59
2021/01/05 11:14:05;;;;;;;14.98;7.80;;;;;;;13.36;52.03;96503.28;5085621;28;20417;-58
2021/01/05 11:16:30;;;;;;;10.98;5.75;;;;;;;12.81;51.35;96441.00;5089423;28;20032;-58
2021/01/05 11:18:56;;;;;;;14.55;7.47;;;;;;;12.88;50.39;96463.19;5099586;28;20127;-58
2021/01/05 11:21:21;;;;;;;12.90;7.80;;;;;;;13.19;50.23;96512.47;5090334;28;20813;-59
2021/01/05 11:23:46;;;;;;;8.20;4.60;;;;;;;13.05;49.70;96506.91;5067377;28;20042;-57
2021/01/05 11:26:12;;;;;;;8.32;4.82;;;;;;;13.03;50.93;96514.06;5071327;28;20032;-56
2021/01/05 11:28:38;;;;;;;9.98;5.75;;;;;;;13.13;51.26;96508.50;5083567;28;20035;-57
2021/01/05 11:31:04;;;;;;;20.52;9.15;;;;;;;12.35;50.67;96417.19;5079765;28;20475;-58
2021/01/05 11:33:30;;;;;;;17.63;9.65;;;;;;;13.10;51.83;96514.84;5097319;28;20031;-58
2021/01/05 11:35:55;;;;;;;17.00;8.27;;;;;;;13.22;51.93;96514.44;5086641;28;20589;-60
2021/01/05 11:38:21;;;;;;;28.55;11.57;;;;;;;13.08;51.72;96503.34;5066858;28;20043;-59
2021/01/05 11:40:46;;;;;;;8.90;4.90;;;;;;;12.52;52.06;96417.19;5097747;28;20206;-60
2021/01/05 11:43:12;;;;;;;14.77;7.32;;;;;;;13.20;52.26;96519.59;5085497;28;20036;-60
2021/01/05 11:45:37;;;;;;;17.02;7.68;;;;;;;13.21;52.30;96510.06;5084413;28;20054;-58
2021/01/05 11:48:03;;;;;;;7.95;4.50;;;;;;;13.20;50.84;96513.22;5084831;28;20043;-60
2021/01/05 11:50:28;;;;;;;7.80;4.68;;;;;;;13.25;49.56;96516.41;5084091;28;20039;-58
2021/01/05 11:52:54;;;;;;;16.70;8.38;;;;;;;13.29;50.58;96528.31;5084621;28;20039;-59
2021/01/05 11:55:19;;;;;;;14.88;8.10;;;;;;;13.39;49.92;96516.38;5085012;28;20065;-59
2021/01/05 11:57:45;;;;;;;9.38;5.85;;;;;;;13.22;49.91;96478.28;5087032;28;20055;-59
2021/01/05 12:00:16;;;;;;;17.83;7.82;;;;;;;13.56;48.71;96521.09;5096210;28;20413;-58